createdAt,value
2023-01-17T00:02:31.893Z,0.75
2023-01-17T00:05:51.959Z,0.35
2023-01-17T00:09:13.592Z,0.50
2023-01-17T00:12:16.187Z,0.88
2023-01-17T00:15:19.772Z,0.80
2023-01-17T00:18:22.330Z,0.55
2023-01-17T00:21:42.675Z,0.43
2023-01-17T00:25:04.379Z,0.70
2023-01-17T00:28:05.929Z,0.52
2023-01-17T00:31:08.182Z,0.60
2023-01-17T00:34:09.668Z,0.80
2023-01-17T00:37:11.115Z,1.27
2023-01-17T00:40:14.088Z,0.95
2023-01-17T00:43:36.774Z,1.15
2023-01-17T00:46:57.191Z,1.98
2023-01-17T00:50:17.456Z,0.70
2023-01-17T00:53:37.587Z,0.82
2023-01-17T00:56:59.043Z,0.57
2023-01-17T01:00:19.309Z,0.35
2023-01-17T01:03:39.616Z,0.85
2023-01-17T01:06:59.985Z,0.47
2023-01-17T01:10:20.320Z,1.20
2023-01-17T01:13:42.897Z,0.75
2023-01-17T01:17:03.268Z,0.57
2023-01-17T01:20:24.068Z,0.70
2023-01-17T01:23:44.407Z,0.73
2023-01-17T01:27:04.797Z,0.80
2023-01-17T01:30:27.511Z,0.90
2023-01-17T01:33:29.037Z,1.17
2023-01-17T01:36:31.637Z,0.60
2023-01-17T01:39:34.259Z,1.30
2023-01-17T01:42:36.833Z,1.08
2023-01-17T01:45:40.813Z,1.60
2023-01-17T01:48:45.301Z,1.60
2023-01-17T01:51:50.179Z,1.67
2023-01-17T01:54:54.052Z,1.63
2023-01-17T01:57:58.895Z,1.35
2023-01-17T02:01:03.075Z,1.55
2023-01-17T02:04:09.680Z,1.30
2023-01-17T02:07:13.757Z,1.73
2023-01-17T02:10:17.011Z,0.98
2023-01-17T02:13:20.644Z,1.30
2023-01-17T02:16:43.842Z,0.88
2023-01-17T02:20:29.852Z,0.80
2023-01-17T02:24:09.703Z,0.93
2023-01-17T02:27:17.439Z,0.93
2023-01-17T02:30:39.788Z,0.90
2023-01-17T02:33:45.548Z,1.77
2023-01-17T02:36:50.835Z,0.82
2023-01-17T02:39:55.247Z,0.40
2023-01-17T02:42:59.290Z,0.50
2023-01-17T02:46:03.294Z,0.30
2023-01-17T02:49:05.902Z,0.50
2023-01-17T02:52:18.311Z,0.60
2023-01-17T02:55:25.422Z,0.50
2023-01-17T02:58:39.650Z,0.65
2023-01-17T03:01:49.516Z,1.10
2023-01-17T03:04:52.892Z,0.60
2023-01-17T03:07:55.401Z,1.38
2023-01-17T03:10:57.995Z,1.10
2023-01-17T03:14:00.601Z,1.70
2023-01-17T03:17:04.623Z,1.73
2023-01-17T03:20:07.704Z,1.38
2023-01-17T03:23:10.281Z,1.33
2023-01-17T03:26:12.847Z,1.02
2023-01-17T03:29:16.377Z,1.20
2023-01-17T03:32:20.255Z,1.20
2023-01-17T03:35:22.824Z,0.90
2023-01-17T03:38:25.797Z,1.92
2023-01-17T03:41:28.421Z,1.27
2023-01-17T03:44:30.996Z,1.20
2023-01-17T03:47:35.505Z,0.90
2023-01-17T03:50:38.022Z,0.80
2023-01-17T03:53:40.539Z,1.00
2023-01-17T03:56:43.052Z,1.02
2023-01-17T03:59:46.031Z,1.25
2023-01-17T04:02:49.973Z,1.40
2023-01-17T04:05:52.552Z,1.20
2023-01-17T04:08:55.153Z,1.58
2023-01-17T04:11:57.735Z,1.73
2023-01-17T04:15:00.321Z,0.82
2023-01-17T04:18:04.876Z,1.73
2023-01-17T04:21:07.706Z,1.88
2023-01-17T04:24:10.296Z,1.30
2023-01-17T04:27:14.263Z,1.17
2023-01-17T04:30:17.049Z,1.10
2023-01-17T04:33:21.592Z,1.48
2023-01-17T04:36:24.183Z,1.00
2023-01-17T04:39:26.752Z,1.63
2023-01-17T04:42:29.315Z,1.70
2023-01-17T04:45:31.899Z,0.95
2023-01-17T04:48:35.818Z,1.42
2023-01-17T04:51:38.335Z,1.42
2023-01-17T04:54:40.897Z,1.00
2023-01-17T04:57:43.471Z,1.15
2023-01-17T05:00:50.652Z,1.50
2023-01-17T05:03:54.619Z,1.17
2023-01-17T05:06:57.151Z,1.55
2023-01-17T05:10:00.767Z,0.90
2023-01-17T05:13:03.305Z,1.15
2023-01-17T05:16:06.230Z,1.13
2023-01-17T05:19:10.252Z,1.33
2023-01-17T05:22:15.760Z,0.93
2023-01-17T05:25:18.291Z,1.88
2023-01-17T05:28:20.902Z,0.75
2023-01-17T05:31:23.526Z,0.90
2023-01-17T05:34:27.421Z,1.35
2023-01-17T05:37:30.014Z,1.20
2023-01-17T05:40:33.446Z,1.00
2023-01-17T05:43:36.021Z,1.13
2023-01-17T05:46:38.608Z,0.90
2023-01-17T05:49:45.110Z,1.63
2023-01-17T05:52:50.299Z,1.77
2023-01-17T05:55:52.883Z,1.75
2023-01-17T05:58:55.491Z,1.30
2023-01-17T06:01:58.193Z,1.08
2023-01-17T06:05:03.550Z,0.85
2023-01-17T06:08:06.571Z,1.10
2023-01-17T06:11:09.156Z,1.17
2023-01-17T06:14:11.946Z,0.90
2023-01-17T06:17:15.524Z,1.48
2023-01-17T06:20:19.624Z,1.45
2023-01-17T06:23:22.214Z,1.60
2023-01-17T06:26:24.794Z,1.85
2023-01-17T06:29:27.310Z,1.13
2023-01-17T06:32:29.893Z,1.00
2023-01-17T06:35:33.776Z,1.50
2023-01-17T06:38:36.342Z,1.40
2023-01-17T06:41:39.076Z,1.10
2023-01-17T06:44:41.616Z,0.98
2023-01-17T06:47:44.328Z,1.42
2023-01-17T06:50:49.692Z,1.25
2023-01-17T06:53:52.232Z,1.25
2023-01-17T06:56:54.763Z,1.77
2023-01-17T06:59:57.291Z,1.63
2023-01-17T07:02:59.857Z,1.25
2023-01-17T07:06:03.816Z,1.48
2023-01-17T07:09:06.376Z,1.20
2023-01-17T07:12:08.924Z,1.83
2023-01-17T07:15:12.454Z,1.35
2023-01-17T07:18:16.208Z,1.17
2023-01-17T07:21:20.155Z,1.15
2023-01-17T07:24:22.728Z,1.05
2023-01-17T07:27:25.470Z,1.60
2023-01-17T07:30:27.980Z,1.20
2023-01-17T07:33:30.547Z,1.60
2023-01-17T07:36:34.428Z,1.23
2023-01-17T07:39:37.325Z,1.40
2023-01-17T07:42:39.949Z,1.30
2023-01-17T07:45:43.678Z,1.58
2023-01-17T07:48:46.215Z,1.70
2023-01-17T07:51:50.139Z,1.63
2023-01-17T07:54:52.659Z,0.85
2023-01-17T07:57:55.224Z,1.25
2023-01-17T08:01:02.486Z,1.92
2023-01-17T08:04:05.274Z,1.70
2023-01-17T08:07:09.190Z,2.13
2023-01-17T08:10:17.803Z,1.42
2023-01-17T08:13:20.903Z,1.67
2023-01-17T08:16:23.543Z,1.75
2023-01-17T08:19:26.074Z,1.63
2023-01-17T08:22:30.938Z,1.25
2023-01-17T08:25:35.190Z,1.77
2023-01-17T08:28:37.764Z,1.23
2023-01-17T08:31:40.363Z,1.40
2023-01-17T08:34:43.003Z,1.50
2023-01-17T08:37:46.916Z,1.60
2023-01-17T08:40:49.632Z,1.38
2023-01-17T08:43:52.390Z,2.30
2023-01-17T08:46:54.971Z,1.30
2023-01-17T08:49:59.446Z,1.70
2023-01-17T08:53:03.366Z,1.40
2023-01-17T08:56:06.500Z,1.35
2023-01-17T08:59:11.236Z,1.90
2023-01-17T09:02:14.756Z,1.50
2023-01-17T09:05:17.524Z,1.38
2023-01-17T09:08:21.477Z,2.13
2023-01-17T09:11:24.013Z,1.58
2023-01-17T09:14:26.618Z,1.90
2023-01-17T09:17:29.205Z,1.60
2023-01-17T09:20:31.778Z,1.20
2023-01-17T09:23:35.662Z,1.70
2023-01-17T09:26:38.254Z,1.65
2023-01-17T09:29:40.824Z,2.08
2023-01-17T09:32:43.429Z,1.73
2023-01-17T09:35:46.011Z,2.15
2023-01-17T09:38:50.199Z,2.03
2023-01-17T09:41:55.610Z,2.20
2023-01-17T09:44:58.201Z,1.60
2023-01-17T09:48:01.009Z,1.60
2023-01-17T09:51:07.276Z,1.70
2023-01-17T09:54:15.444Z,1.27
2023-01-17T09:57:35.619Z,1.95
2023-01-17T10:00:46.367Z,1.83
2023-01-17T10:03:57.943Z,1.42
2023-01-17T10:07:07.920Z,1.30
2023-01-17T10:10:35.181Z,2.17
2023-01-17T10:13:40.231Z,1.52
2023-01-17T10:16:45.345Z,1.90
2023-01-17T10:19:58.459Z,1.83
2023-01-17T10:23:08.326Z,1.67
2023-01-17T10:26:13.267Z,1.38
2023-01-17T10:29:20.002Z,1.58
2023-01-17T10:32:23.816Z,1.60
2023-01-17T10:35:28.332Z,1.98
2023-01-17T10:38:32.229Z,2.00
2023-01-17T10:41:38.134Z,1.80
2023-01-17T10:44:42.325Z,1.67
2023-01-17T10:47:47.809Z,1.70
2023-01-17T10:50:53.859Z,1.83
2023-01-17T10:54:04.996Z,1.67
2023-01-17T10:57:13.154Z,1.80
2023-01-17T11:00:29.732Z,1.50
2023-01-17T11:03:32.331Z,1.42
2023-01-17T11:06:49.736Z,1.08
2023-01-17T11:10:00.094Z,1.00
2023-01-17T11:13:04.381Z,1.08
2023-01-17T11:16:08.290Z,1.05
2023-01-17T11:19:16.205Z,0.70
2023-01-17T11:22:18.852Z,0.73
2023-01-17T11:25:23.039Z,1.10
2023-01-17T11:28:30.393Z,0.70
2023-01-17T11:31:33.021Z,1.10
2023-01-17T11:34:35.540Z,1.00
2023-01-17T11:37:38.631Z,0.63
2023-01-17T11:40:41.817Z,0.80
2023-01-17T11:43:52.298Z,0.17
2023-01-17T11:47:09.412Z,0.50
2023-01-17T11:50:24.484Z,0.57
2023-01-17T11:53:28.920Z,0.50
2023-01-17T11:56:32.920Z,0.40
2023-01-17T11:59:37.614Z,0.30
2023-01-17T12:03:00.918Z,0.85
2023-01-17T12:06:04.574Z,0.57
2023-01-17T12:09:12.552Z,0.20
2023-01-17T12:12:51.755Z,0.40
2023-01-17T12:16:01.582Z,0.50
2023-01-17T12:19:26.546Z,0.35
2023-01-17T12:22:46.122Z,0.20
2023-01-17T12:26:00.945Z,0.55
2023-01-17T12:29:43.844Z,0.30
2023-01-17T12:33:03.235Z,0.20
2023-01-17T12:36:09.502Z,0.40
2023-01-17T12:39:14.273Z,0.45
2023-01-17T12:42:19.193Z,0.20
2023-01-17T12:45:24.247Z,0.20
2023-01-17T12:48:30.253Z,0.60
2023-01-17T12:51:34.936Z,0.40
2023-01-17T12:54:39.216Z,0.25
2023-01-17T12:57:43.058Z,0.50
2023-01-17T13:00:47.131Z,0.40
2023-01-17T13:03:57.831Z,0.80
2023-01-17T13:07:06.069Z,0.38
2023-01-17T13:10:22.144Z,0.45
2023-01-17T13:13:25.914Z,0.40
2023-01-17T13:16:31.202Z,0.45
2023-01-17T13:19:41.531Z,0.40
2023-01-17T13:22:44.231Z,0.70
2023-01-17T13:25:48.076Z,0.50
2023-01-17T13:28:54.897Z,0.30
2023-01-17T13:32:00.143Z,0.35
2023-01-17T13:35:19.383Z,0.80
2023-01-17T13:38:54.841Z,0.60
2023-01-17T13:42:04.333Z,0.47
2023-01-17T13:45:10.652Z,0.30
2023-01-17T13:48:30.475Z,0.60
2023-01-17T13:52:02.678Z,0.50
2023-01-17T13:55:07.113Z,0.45
2023-01-17T13:58:28.016Z,0.30
2023-01-17T14:01:50.009Z,0.28
2023-01-17T14:05:09.639Z,0.30
2023-01-17T14:08:16.097Z,0.40
2023-01-17T14:11:18.694Z,0.50
2023-01-17T14:14:50.019Z,0.40
2023-01-17T14:17:56.940Z,0.20
2023-01-17T14:21:07.981Z,0.30
2023-01-17T14:24:16.411Z,0.28
2023-01-17T14:27:22.876Z,0.40
2023-01-17T14:30:26.610Z,0.80
2023-01-17T14:33:30.097Z,0.75
2023-01-17T14:36:34.465Z,1.10
2023-01-17T14:39:46.102Z,0.20
2023-01-17T14:42:49.612Z,2.28
2023-01-17T14:45:57.621Z,0.38
2023-01-17T14:49:00.908Z,0.55
2023-01-17T14:52:04.422Z,0.28
2023-01-17T14:55:15.597Z,0.20
2023-01-17T14:58:18.177Z,0.40
2023-01-17T15:01:21.097Z,0.40
2023-01-17T15:04:26.955Z,0.50
2023-01-17T15:07:31.494Z,0.17
2023-01-17T15:10:35.361Z,0.32
2023-01-17T15:13:44.645Z,0.10
2023-01-17T15:16:47.935Z,0.25
2023-01-17T15:19:51.993Z,0.30
2023-01-17T15:22:54.534Z,0.45
2023-01-17T15:25:58.435Z,0.38
2023-01-17T15:29:03.183Z,0.30
2023-01-17T15:32:06.813Z,0.30
2023-01-17T15:35:17.818Z,0.50
2023-01-17T15:38:20.346Z,0.40
2023-01-17T15:41:25.453Z,0.82
2023-01-17T15:44:46.876Z,0.80
2023-01-17T15:47:50.909Z,1.00
2023-01-17T15:50:58.879Z,0.60
2023-01-17T15:54:01.461Z,1.60
2023-01-17T15:57:18.534Z,0.90
2023-01-17T16:00:22.180Z,0.87
2023-01-17T16:03:25.754Z,1.08
2023-01-17T16:06:38.107Z,2.72
2023-01-17T16:09:42.820Z,2.40
2023-01-17T16:12:46.890Z,8.10
2023-01-17T16:15:49.517Z,2.92
2023-01-17T16:18:57.678Z,1.60
2023-01-17T16:22:02.746Z,0.75
2023-01-17T16:25:13.231Z,1.40
2023-01-17T16:28:17.111Z,2.03
2023-01-17T16:31:19.681Z,1.30
2023-01-17T16:34:23.795Z,0.90
2023-01-17T16:37:26.398Z,0.65
2023-01-17T16:40:29.855Z,0.57
2023-01-17T16:43:33.768Z,0.98
2023-01-17T16:46:38.468Z,0.70
2023-01-17T16:49:41.090Z,0.88
2023-01-17T16:52:43.633Z,1.10
2023-01-17T16:55:46.198Z,1.58
2023-01-17T16:58:51.918Z,3.15
2023-01-17T17:01:54.845Z,2.72
2023-01-17T17:04:57.463Z,3.60
2023-01-17T17:08:00.265Z,3.20
2023-01-17T17:11:12.832Z,5.60
2023-01-17T17:14:16.884Z,5.35
2023-01-17T17:17:19.487Z,4.03
2023-01-17T17:20:25.073Z,3.88
2023-01-17T17:23:27.839Z,4.95
2023-01-17T17:26:31.547Z,4.40
2023-01-17T17:29:36.059Z,3.38
2023-01-17T17:32:38.678Z,2.83
2023-01-17T17:35:41.242Z,2.40
2023-01-17T17:38:51.569Z,3.33
2023-01-17T17:41:54.140Z,3.10
2023-01-17T17:44:58.055Z,3.10
2023-01-17T17:48:00.651Z,2.47
2023-01-17T17:51:03.847Z,2.05
2023-01-17T17:54:07.299Z,1.50
2023-01-17T17:57:10.179Z,1.50
2023-01-17T18:00:15.121Z,1.80
2023-01-17T18:03:17.649Z,1.23
2023-01-17T18:06:20.249Z,1.77
2023-01-17T18:09:22.835Z,2.10
2023-01-17T18:12:25.412Z,2.63
2023-01-17T18:15:29.343Z,2.28
2023-01-17T18:18:32.272Z,2.22
2023-01-17T18:21:35.859Z,2.13
2023-01-17T18:24:38.423Z,2.28
2023-01-17T18:27:42.358Z,3.17
2023-01-17T18:30:46.238Z,1.80
2023-01-17T18:33:48.805Z,1.40
2023-01-17T18:36:51.587Z,1.15
2023-01-17T18:39:54.240Z,1.05
2023-01-17T18:42:57.489Z,1.33
2023-01-17T18:46:01.502Z,1.60
2023-01-17T18:49:04.099Z,2.22
2023-01-17T18:52:07.996Z,2.25
2023-01-17T18:55:10.610Z,2.58
2023-01-17T18:58:13.207Z,2.63
2023-01-17T19:01:17.863Z,3.75
2023-01-17T19:04:20.454Z,2.50
2023-01-17T19:07:24.026Z,2.13
2023-01-17T19:10:26.638Z,2.67
2023-01-17T19:13:29.221Z,2.92
2023-01-17T19:16:34.926Z,2.80
2023-01-17T19:19:38.043Z,3.08
2023-01-17T19:22:41.214Z,2.85
2023-01-17T19:25:43.762Z,2.80
2023-01-17T19:28:47.028Z,3.10
2023-01-17T19:31:50.953Z,2.53
2023-01-17T19:34:53.736Z,3.05
2023-01-17T19:37:56.577Z,2.33
2023-01-17T19:41:10.020Z,2.85
2023-01-17T19:44:13.343Z,2.78
2023-01-17T19:47:17.338Z,3.53
2023-01-17T19:50:20.104Z,3.03
2023-01-17T19:53:22.738Z,3.65
2023-01-17T19:56:26.404Z,2.83
2023-01-17T19:59:28.984Z,3.00
2023-01-17T20:02:34.598Z,2.78
2023-01-17T20:05:37.198Z,2.70
2023-01-17T20:08:40.089Z,2.63
2023-01-17T20:11:43.064Z,2.78
2023-01-17T20:14:45.600Z,3.33
2023-01-17T20:17:49.512Z,2.83
2023-01-17T20:20:57.323Z,2.92
2023-01-17T20:24:03.076Z,3.00
2023-01-17T20:27:05.711Z,3.08
2023-01-17T20:30:19.742Z,3.08
2023-01-17T20:33:24.263Z,3.03
2023-01-17T20:36:28.833Z,2.80
2023-01-17T20:39:32.656Z,3.08
2023-01-17T20:42:36.807Z,3.28
2023-01-17T20:45:39.412Z,2.40
2023-01-17T20:48:45.699Z,3.85
2023-01-17T20:51:48.424Z,3.25
2023-01-17T20:54:51.740Z,3.17
2023-01-17T20:57:54.436Z,2.97
2023-01-17T21:00:57.127Z,3.38
2023-01-17T21:04:01.064Z,3.20
2023-01-17T21:07:03.639Z,3.00
2023-01-17T21:10:06.988Z,3.25
2023-01-17T21:13:09.531Z,3.65
2023-01-17T21:16:13.943Z,3.75
2023-01-17T21:19:17.856Z,3.25
2023-01-17T21:22:20.424Z,3.42
2023-01-17T21:25:23.011Z,3.33
2023-01-17T21:28:26.591Z,3.97
2023-01-17T21:31:31.028Z,3.15
2023-01-17T21:34:35.121Z,2.72
2023-01-17T21:37:38.147Z,3.28
2023-01-17T21:40:40.818Z,3.10
2023-01-17T21:43:43.410Z,3.63
2023-01-17T21:46:46.347Z,2.95
2023-01-17T21:49:50.292Z,3.40
2023-01-17T21:52:52.873Z,3.97
2023-01-17T21:56:18.569Z,2.67
2023-01-17T21:59:21.087Z,3.25
2023-01-17T22:02:23.852Z,2.83
2023-01-17T22:05:27.792Z,2.83
2023-01-17T22:08:32.737Z,3.47
2023-01-17T22:11:36.954Z,3.35
2023-01-17T22:14:39.493Z,3.15
2023-01-17T22:17:42.398Z,3.70
2023-01-17T22:20:46.331Z,4.38
2023-01-17T22:23:50.078Z,4.05
2023-01-17T22:26:52.591Z,4.80
2023-01-17T22:29:55.167Z,4.53
2023-01-17T22:32:58.240Z,4.88
2023-01-17T22:36:02.385Z,4.50
2023-01-17T22:39:05.170Z,5.03
2023-01-17T22:42:08.224Z,5.28
2023-01-17T22:45:11.692Z,3.70
2023-01-17T22:48:14.227Z,3.47
2023-01-17T22:51:18.828Z,3.50
2023-01-17T22:54:21.520Z,3.85
2023-01-17T22:57:24.107Z,4.10
2023-01-17T23:00:26.687Z,3.90
2023-01-17T23:03:29.254Z,3.58
2023-01-17T23:06:33.718Z,4.20
2023-01-17T23:09:36.236Z,3.25
2023-01-17T23:12:38.861Z,3.20
2023-01-17T23:15:59.131Z,4.05
2023-01-17T23:19:19.471Z,3.90
2023-01-17T23:22:24.451Z,4.00
2023-01-17T23:25:26.978Z,3.97
2023-01-17T23:28:28.522Z,3.47
2023-01-17T23:31:31.102Z,3.10
2023-01-17T23:34:33.676Z,3.13
2023-01-17T23:37:55.194Z,3.40
2023-01-17T23:41:19.078Z,3.63
2023-01-17T23:44:21.648Z,4.07
2023-01-17T23:47:24.194Z,4.03
2023-01-17T23:50:26.735Z,4.38
2023-01-17T23:53:30.653Z,4.57
2023-01-17T23:56:33.197Z,3.95
2023-01-17T23:59:35.747Z,5.03
